sensor_id;sensor_type;location;lat;lon;timestamp;P1;durP1;ratioP1;P2;durP2;ratioP2
25915;SDS011;13719;48.188;11.618;2024-01-15T00:01:23;5.32;;;2.42;;
25915;SDS011;13719;48.188;11.618;2024-01-15T00:03:51;2.28;;;1.90;;
25915;SDS011;13719;48.188;11.618;2024-01-15T00:06:19;3.30;;;2.13;;
25915;SDS011;13719;48.188;11.618;2024-01-15T00:08:48;5.05;;;2.58;;
25915;SDS011;13719;48.188;11.618;2024-01-15T00:11:16;5.60;;;2.53;;
25915;SDS011;13719;48.188;11.618;2024-01-15T00:13:47;4.43;;;1.90;;
25915;SDS011;13719;48.188;11.618;2024-01-15T00:16:15;2.63;;;1.95;;
25915;SDS011;13719;48.188;11.618;2024-01-15T00:18:43;3.83;;;2.58;;
25915;SDS011;13719;48.188;11.618;2024-01-15T00:21:12;3.13;;;2.33;;
25915;SDS011;13719;48.188;11.618;2024-01-15T00:23:42;4.25;;;2.35;;
25915;SDS011;13719;48.188;11.618;2024-01-15T00:26:11;6.45;;;2.95;;
25915;SDS011;13719;48.188;11.618;2024-01-15T00:28:39;4.85;;;2.50;;
25915;SDS011;13719;48.188;11.618;2024-01-15T00:31:09;4.25;;;2.72;;
25915;SDS011;13719;48.188;11.618;2024-01-15T00:33:37;5.53;;;2.70;;
25915;SDS011;13719;48.188;11.618;2024-01-15T00:36:07;8.73;;;3.30;;
25915;SDS011;13719;48.188;11.618;2024-01-15T00:38:35;6.68;;;3.35;;
25915;SDS011;13719;48.188;11.618;2024-01-15T00:41:03;7.05;;;2.85;;
25915;SDS011;13719;48.188;11.618;2024-01-15T00:43:32;6.55;;;3.17;;
25915;SDS011;13719;48.188;11.618;2024-01-15T00:46:01;5.35;;;3.10;;
25915;SDS011;13719;48.188;11.618;2024-01-15T00:48:31;8.60;;;3.60;;
25915;SDS011;13719;48.188;11.618;2024-01-15T00:51:00;5.03;;;3.10;;
25915;SDS011;13719;48.188;11.618;2024-01-15T00:53:28;9.70;;;3.47;;
25915;SDS011;13719;48.188;11.618;2024-01-15T00:55:57;7.53;;;4.13;;
25915;SDS011;13719;48.188;11.618;2024-01-15T00:58:25;6.57;;;3.47;;
25915;SDS011;13719;48.188;11.618;2024-01-15T01:00:54;8.20;;;4.25;;
25915;SDS011;13719;48.188;11.618;2024-01-15T01:03:22;9.15;;;4.13;;
25915;SDS011;13719;48.188;11.618;2024-01-15T01:05:52;9.82;;;5.57;;
25915;SDS011;13719;48.188;11.618;2024-01-15T01:08:21;11.90;;;5.40;;
25915;SDS011;13719;48.188;11.618;2024-01-15T01:10:49;11.32;;;5.20;;
25915;SDS011;13719;48.188;11.618;2024-01-15T01:13:18;8.10;;;4.43;;
25915;SDS011;13719;48.188;11.618;2024-01-15T01:15:46;10.50;;;4.57;;
25915;SDS011;13719;48.188;11.618;2024-01-15T01:18:14;8.20;;;4.78;;
25915;SDS011;13719;48.188;11.618;2024-01-15T01:20:43;8.38;;;4.10;;
25915;SDS011;13719;48.188;11.618;2024-01-15T01:23:13;9.85;;;4.95;;
25915;SDS011;13719;48.188;11.618;2024-01-15T01:25:41;5.78;;;3.35;;
25915;SDS011;13719;48.188;11.618;2024-01-15T01:28:09;5.82;;;4.10;;
25915;SDS011;13719;48.188;11.618;2024-01-15T01:30:38;8.38;;;3.80;;
25915;SDS011;13719;48.188;11.618;2024-01-15T01:33:07;5.47;;;3.33;;
25915;SDS011;13719;48.188;11.618;2024-01-15T01:35:35;7.10;;;3.45;;
25915;SDS011;13719;48.188;11.618;2024-01-15T01:38:04;6.15;;;4.05;;
25915;SDS011;13719;48.188;11.618;2024-01-15T01:40:34;7.85;;;3.70;;
25915;SDS011;13719;48.188;11.618;2024-01-15T01:43:02;8.48;;;3.10;;
25915;SDS011;13719;48.188;11.618;2024-01-15T01:45:31;12.82;;;4.07;;
25915;SDS011;13719;48.188;11.618;2024-01-15T01:47:59;4.55;;;2.97;;
25915;SDS011;13719;48.188;11.618;2024-01-15T01:50:28;5.38;;;3.22;;
25915;SDS011;13719;48.188;11.618;2024-01-15T01:52:58;7.13;;;3.67;;
25915;SDS011;13719;48.188;11.618;2024-01-15T01:55:27;4.85;;;2.60;;
25915;SDS011;13719;48.188;11.618;2024-01-15T01:57:57;5.95;;;3.00;;
25915;SDS011;13719;48.188;11.618;2024-01-15T02:00:26;3.80;;;2.38;;
25915;SDS011;13719;48.188;11.618;2024-01-15T02:02:54;6.80;;;3.22;;
25915;SDS011;13719;48.188;11.618;2024-01-15T02:05:22;5.93;;;3.47;;
25915;SDS011;13719;48.188;11.618;2024-01-15T02:07:51;5.85;;;3.40;;
25915;SDS011;13719;48.188;11.618;2024-01-15T02:10:19;6.43;;;3.75;;
25915;SDS011;13719;48.188;11.618;2024-01-15T02:12:47;7.38;;;3.05;;
25915;SDS011;13719;48.188;11.618;2024-01-15T02:15:17;6.40;;;3.30;;
25915;SDS011;13719;48.188;11.618;2024-01-15T02:20:33;5.45;;;3.28;;
25915;SDS011;13719;48.188;11.618;2024-01-15T02:23:06;8.50;;;3.85;;
25915;SDS011;13719;48.188;11.618;2024-01-15T02:25:36;8.80;;;3.63;;
25915;SDS011;13719;48.188;11.618;2024-01-15T02:28:05;6.18;;;2.83;;
25915;SDS011;13719;48.188;11.618;2024-01-15T02:30:34;6.78;;;3.30;;
25915;SDS011;13719;48.188;11.618;2024-01-15T02:33:05;6.40;;;3.05;;
25915;SDS011;13719;48.188;11.618;2024-01-15T02:35:34;7.93;;;3.30;;
25915;SDS011;13719;48.188;11.618;2024-01-15T02:38:05;5.43;;;3.17;;
25915;SDS011;13719;48.188;11.618;2024-01-15T02:40:33;5.50;;;3.22;;
25915;SDS011;13719;48.188;11.618;2024-01-15T02:43:02;9.65;;;4.18;;
25915;SDS011;13719;48.188;11.618;2024-01-15T02:45:30;4.55;;;2.80;;
25915;SDS011;13719;48.188;11.618;2024-01-15T02:47:59;7.88;;;3.80;;
25915;SDS011;13719;48.188;11.618;2024-01-15T02:50:28;6.57;;;3.15;;
25915;SDS011;13719;48.188;11.618;2024-01-15T02:52:56;7.65;;;3.95;;
25915;SDS011;13719;48.188;11.618;2024-01-15T02:55:26;7.57;;;3.85;;
25915;SDS011;13719;48.188;11.618;2024-01-15T02:57:56;8.57;;;3.58;;
25915;SDS011;13719;48.188;11.618;2024-01-15T03:00:24;7.28;;;3.70;;
25915;SDS011;13719;48.188;11.618;2024-01-15T03:02:53;10.38;;;4.43;;
25915;SDS011;13719;48.188;11.618;2024-01-15T03:05:21;6.22;;;3.65;;
25915;SDS011;13719;48.188;11.618;2024-01-15T03:07:49;6.45;;;3.22;;
25915;SDS011;13719;48.188;11.618;2024-01-15T03:10:18;8.60;;;3.80;;
25915;SDS011;13719;48.188;11.618;2024-01-15T03:12:47;8.48;;;4.07;;
25915;SDS011;13719;48.188;11.618;2024-01-15T03:15:16;8.00;;;3.97;;
25915;SDS011;13719;48.188;11.618;2024-01-15T03:17:45;8.85;;;4.07;;
25915;SDS011;13719;48.188;11.618;2024-01-15T03:20:14;6.65;;;3.47;;
25915;SDS011;13719;48.188;11.618;2024-01-15T03:22:42;10.63;;;3.83;;
25915;SDS011;13719;48.188;11.618;2024-01-15T03:25:10;5.75;;;3.10;;
25915;SDS011;13719;48.188;11.618;2024-01-15T03:27:39;6.85;;;3.33;;
25915;SDS011;13719;48.188;11.618;2024-01-15T03:30:09;6.60;;;3.28;;
25915;SDS011;13719;48.188;11.618;2024-01-15T03:32:38;7.85;;;3.55;;
25915;SDS011;13719;48.188;11.618;2024-01-15T03:35:06;9.20;;;4.07;;
25915;SDS011;13719;48.188;11.618;2024-01-15T03:37:35;7.32;;;3.97;;
25915;SDS011;13719;48.188;11.618;2024-01-15T03:40:04;8.38;;;4.15;;
25915;SDS011;13719;48.188;11.618;2024-01-15T03:42:32;8.38;;;3.75;;
25915;SDS011;13719;48.188;11.618;2024-01-15T03:45:01;7.30;;;3.75;;
25915;SDS011;13719;48.188;11.618;2024-01-15T03:47:30;5.78;;;3.38;;
25915;SDS011;13719;48.188;11.618;2024-01-15T03:49:59;6.93;;;3.60;;
25915;SDS011;13719;48.188;11.618;2024-01-15T03:52:27;5.75;;;3.47;;
25915;SDS011;13719;48.188;11.618;2024-01-15T03:54:56;6.20;;;3.33;;
25915;SDS011;13719;48.188;11.618;2024-01-15T03:57:24;7.65;;;3.83;;
25915;SDS011;13719;48.188;11.618;2024-01-15T03:59:53;4.78;;;3.05;;
25915;SDS011;13719;48.188;11.618;2024-01-15T04:02:21;8.38;;;3.63;;
25915;SDS011;13719;48.188;11.618;2024-01-15T04:04:51;10.38;;;3.42;;
25915;SDS011;13719;48.188;11.618;2024-01-15T04:07:19;9.27;;;4.05;;
25915;SDS011;13719;48.188;11.618;2024-01-15T04:09:48;7.82;;;3.60;;
25915;SDS011;13719;48.188;11.618;2024-01-15T04:12:16;6.07;;;3.03;;
25915;SDS011;13719;48.188;11.618;2024-01-15T04:14:44;4.75;;;3.08;;
25915;SDS011;13719;48.188;11.618;2024-01-15T04:17:13;7.07;;;3.17;;
25915;SDS011;13719;48.188;11.618;2024-01-15T04:19:43;7.50;;;3.60;;
25915;SDS011;13719;48.188;11.618;2024-01-15T04:22:13;6.60;;;2.95;;
25915;SDS011;13719;48.188;11.618;2024-01-15T04:24:41;7.75;;;3.78;;
25915;SDS011;13719;48.188;11.618;2024-01-15T04:27:09;6.25;;;3.80;;
25915;SDS011;13719;48.188;11.618;2024-01-15T04:29:37;5.80;;;3.75;;
25915;SDS011;13719;48.188;11.618;2024-01-15T04:32:07;6.88;;;3.80;;
25915;SDS011;13719;48.188;11.618;2024-01-15T04:34:35;6.82;;;3.88;;
25915;SDS011;13719;48.188;11.618;2024-01-15T04:37:04;7.43;;;4.30;;
25915;SDS011;13719;48.188;11.618;2024-01-15T04:39:34;7.00;;;3.17;;
25915;SDS011;13719;48.188;11.618;2024-01-15T04:42:02;8.38;;;4.03;;
25915;SDS011;13719;48.188;11.618;2024-01-15T04:44:31;6.43;;;3.20;;
25915;SDS011;13719;48.188;11.618;2024-01-15T04:46:59;6.78;;;3.72;;
25915;SDS011;13719;48.188;11.618;2024-01-15T04:49:28;6.35;;;3.65;;
25915;SDS011;13719;48.188;11.618;2024-01-15T04:51:56;5.72;;;3.03;;
25915;SDS011;13719;48.188;11.618;2024-01-15T04:54:25;7.07;;;3.20;;
25915;SDS011;13719;48.188;11.618;2024-01-15T04:56:54;6.28;;;3.70;;
25915;SDS011;13719;48.188;11.618;2024-01-15T04:59:23;5.40;;;3.15;;
25915;SDS011;13719;48.188;11.618;2024-01-15T05:01:51;5.85;;;3.22;;
25915;SDS011;13719;48.188;11.618;2024-01-15T05:04:20;9.68;;;4.07;;
25915;SDS011;13719;48.188;11.618;2024-01-15T05:06:48;9.25;;;3.97;;
25915;SDS011;13719;48.188;11.618;2024-01-15T05:09:16;9.25;;;4.10;;
25915;SDS011;13719;48.188;11.618;2024-01-15T05:11:45;7.18;;;3.60;;
25915;SDS011;13719;48.188;11.618;2024-01-15T05:14:15;6.45;;;3.30;;
25915;SDS011;13719;48.188;11.618;2024-01-15T05:16:46;7.03;;;3.30;;
25915;SDS011;13719;48.188;11.618;2024-01-15T05:19:15;5.95;;;3.15;;
25915;SDS011;13719;48.188;11.618;2024-01-15T05:21:43;4.82;;;3.20;;
25915;SDS011;13719;48.188;11.618;2024-01-15T05:24:12;6.45;;;3.65;;
25915;SDS011;13719;48.188;11.618;2024-01-15T05:26:40;8.80;;;3.95;;
25915;SDS011;13719;48.188;11.618;2024-01-15T05:29:09;5.32;;;3.40;;
25915;SDS011;13719;48.188;11.618;2024-01-15T05:31:38;6.65;;;3.58;;
25915;SDS011;13719;48.188;11.618;2024-01-15T05:34:07;5.75;;;2.90;;
25915;SDS011;13719;48.188;11.618;2024-01-15T05:36:36;4.40;;;3.00;;
25915;SDS011;13719;48.188;11.618;2024-01-15T05:39:04;6.40;;;3.25;;
25915;SDS011;13719;48.188;11.618;2024-01-15T05:41:33;8.25;;;3.53;;
25915;SDS011;13719;48.188;11.618;2024-01-15T05:44:01;6.35;;;3.28;;
25915;SDS011;13719;48.188;11.618;2024-01-15T05:46:29;7.07;;;3.03;;
25915;SDS011;13719;48.188;11.618;2024-01-15T05:48:59;8.88;;;3.55;;
25915;SDS011;13719;48.188;11.618;2024-01-15T05:51:27;5.80;;;3.17;;
25915;SDS011;13719;48.188;11.618;2024-01-15T05:53:56;4.45;;;2.65;;
25915;SDS011;13719;48.188;11.618;2024-01-15T05:56:24;6.50;;;3.42;;
25915;SDS011;13719;48.188;11.618;2024-01-15T05:58:53;6.40;;;3.05;;
25915;SDS011;13719;48.188;11.618;2024-01-15T06:01:21;4.82;;;3.03;;
25915;SDS011;13719;48.188;11.618;2024-01-15T06:03:50;7.53;;;3.45;;
25915;SDS011;13719;48.188;11.618;2024-01-15T06:06:19;6.32;;;3.03;;
25915;SDS011;13719;48.188;11.618;2024-01-15T06:08:48;5.70;;;2.53;;
25915;SDS011;13719;48.188;11.618;2024-01-15T06:11:16;6.45;;;3.47;;
25915;SDS011;13719;48.188;11.618;2024-01-15T06:13:45;5.30;;;3.05;;
25915;SDS011;13719;48.188;11.618;2024-01-15T06:16:14;5.63;;;3.13;;
25915;SDS011;13719;48.188;11.618;2024-01-15T06:18:43;6.38;;;3.25;;
25915;SDS011;13719;48.188;11.618;2024-01-15T06:21:11;5.18;;;2.83;;
25915;SDS011;13719;48.188;11.618;2024-01-15T06:23:42;6.18;;;3.17;;
25915;SDS011;13719;48.188;11.618;2024-01-15T06:26:11;5.93;;;2.90;;
25915;SDS011;13719;48.188;11.618;2024-01-15T06:28:39;7.35;;;3.10;;
25915;SDS011;13719;48.188;11.618;2024-01-15T06:31:08;4.40;;;2.38;;
25915;SDS011;13719;48.188;11.618;2024-01-15T06:33:37;7.85;;;2.80;;
25915;SDS011;13719;48.188;11.618;2024-01-15T06:36:06;5.03;;;2.67;;
25915;SDS011;13719;48.188;11.618;2024-01-15T06:38:34;6.15;;;2.85;;
25915;SDS011;13719;48.188;11.618;2024-01-15T06:41:04;5.70;;;2.42;;
25915;SDS011;13719;48.188;11.618;2024-01-15T06:43:33;5.07;;;3.03;;
25915;SDS011;13719;48.188;11.618;2024-01-15T06:46:01;5.28;;;2.83;;
25915;SDS011;13719;48.188;11.618;2024-01-15T06:48:33;5.65;;;2.80;;
25915;SDS011;13719;48.188;11.618;2024-01-15T06:51:02;4.57;;;2.83;;
25915;SDS011;13719;48.188;11.618;2024-01-15T06:53:31;4.30;;;2.50;;
25915;SDS011;13719;48.188;11.618;2024-01-15T06:55:59;3.70;;;2.17;;
25915;SDS011;13719;48.188;11.618;2024-01-15T06:58:30;6.88;;;2.92;;
25915;SDS011;13719;48.188;11.618;2024-01-15T07:00:59;5.05;;;2.80;;
25915;SDS011;13719;48.188;11.618;2024-01-15T07:03:28;3.78;;;2.20;;
25915;SDS011;13719;48.188;11.618;2024-01-15T07:05:57;4.47;;;2.67;;
25915;SDS011;13719;48.188;11.618;2024-01-15T07:08:25;5.30;;;2.70;;
25915;SDS011;13719;48.188;11.618;2024-01-15T07:10:53;4.15;;;2.40;;
25915;SDS011;13719;48.188;11.618;2024-01-15T07:13:22;4.03;;;2.67;;
25915;SDS011;13719;48.188;11.618;2024-01-15T07:15:51;4.97;;;2.63;;
25915;SDS011;13719;48.188;11.618;2024-01-15T07:18:20;4.18;;;2.60;;
25915;SDS011;13719;48.188;11.618;2024-01-15T07:20:49;4.70;;;2.63;;
25915;SDS011;13719;48.188;11.618;2024-01-15T07:23:18;4.28;;;2.65;;
25915;SDS011;13719;48.188;11.618;2024-01-15T07:25:46;5.03;;;2.85;;
25915;SDS011;13719;48.188;11.618;2024-01-15T07:28:15;3.58;;;2.25;;
25915;SDS011;13719;48.188;11.618;2024-01-15T07:30:43;6.65;;;3.58;;
25915;SDS011;13719;48.188;11.618;2024-01-15T07:33:13;6.63;;;3.10;;
25915;SDS011;13719;48.188;11.618;2024-01-15T07:35:42;3.63;;;2.10;;
25915;SDS011;13719;48.188;11.618;2024-01-15T07:38:11;3.75;;;2.50;;
25915;SDS011;13719;48.188;11.618;2024-01-15T07:40:39;9.38;;;3.20;;
25915;SDS011;13719;48.188;11.618;2024-01-15T07:43:08;5.85;;;2.92;;
25915;SDS011;13719;48.188;11.618;2024-01-15T07:45:36;4.85;;;2.65;;
25915;SDS011;13719;48.188;11.618;2024-01-15T07:48:07;6.47;;;2.42;;
25915;SDS011;13719;48.188;11.618;2024-01-15T07:50:37;6.75;;;3.20;;
25915;SDS011;13719;48.188;11.618;2024-01-15T07:53:06;7.75;;;3.17;;
25915;SDS011;13719;48.188;11.618;2024-01-15T07:55:34;5.30;;;2.85;;
25915;SDS011;13719;48.188;11.618;2024-01-15T07:58:03;5.60;;;3.20;;
25915;SDS011;13719;48.188;11.618;2024-01-15T08:00:41;3.67;;;2.35;;
25915;SDS011;13719;48.188;11.618;2024-01-15T08:03:10;6.95;;;3.13;;
25915;SDS011;13719;48.188;11.618;2024-01-15T08:05:40;5.07;;;2.90;;
25915;SDS011;13719;48.188;11.618;2024-01-15T08:08:08;5.68;;;3.03;;
25915;SDS011;13719;48.188;11.618;2024-01-15T08:10:36;6.68;;;3.45;;
25915;SDS011;13719;48.188;11.618;2024-01-15T08:13:05;6.53;;;2.85;;
25915;SDS011;13719;48.188;11.618;2024-01-15T08:15:35;4.40;;;2.90;;
25915;SDS011;13719;48.188;11.618;2024-01-15T08:18:04;3.85;;;2.45;;
25915;SDS011;13719;48.188;11.618;2024-01-15T08:20:33;9.75;;;3.20;;
25915;SDS011;13719;48.188;11.618;2024-01-15T08:23:03;4.45;;;2.38;;
25915;SDS011;13719;48.188;11.618;2024-01-15T08:25:31;5.40;;;3.22;;
25915;SDS011;13719;48.188;11.618;2024-01-15T08:28:00;8.88;;;4.22;;
25915;SDS011;13719;48.188;11.618;2024-01-15T08:30:28;6.57;;;3.67;;
25915;SDS011;13719;48.188;11.618;2024-01-15T08:32:57;8.00;;;3.17;;
25915;SDS011;13719;48.188;11.618;2024-01-15T08:35:36;5.85;;;3.75;;
25915;SDS011;13719;48.188;11.618;2024-01-15T08:38:06;5.45;;;3.08;;
25915;SDS011;13719;48.188;11.618;2024-01-15T08:40:34;4.95;;;2.72;;
25915;SDS011;13719;48.188;11.618;2024-01-15T08:43:03;5.35;;;2.67;;
25915;SDS011;13719;48.188;11.618;2024-01-15T08:45:33;8.85;;;3.15;;
25915;SDS011;13719;48.188;11.618;2024-01-15T08:48:01;4.72;;;2.92;;
25915;SDS011;13719;48.188;11.618;2024-01-15T08:50:30;6.35;;;3.22;;
25915;SDS011;13719;48.188;11.618;2024-01-15T08:52:59;5.18;;;3.28;;
25915;SDS011;13719;48.188;11.618;2024-01-15T08:55:29;4.25;;;2.13;;
25915;SDS011;13719;48.188;11.618;2024-01-15T08:57:57;6.18;;;2.72;;
25915;SDS011;13719;48.188;11.618;2024-01-15T09:00:26;6.75;;;2.92;;
25915;SDS011;13719;48.188;11.618;2024-01-15T09:02:55;9.48;;;3.63;;
25915;SDS011;13719;48.188;11.618;2024-01-15T09:05:23;5.78;;;2.97;;
25915;SDS011;13719;48.188;11.618;2024-01-15T09:07:52;2.88;;;2.28;;
25915;SDS011;13719;48.188;11.618;2024-01-15T09:10:20;6.32;;;3.33;;
25915;SDS011;13719;48.188;11.618;2024-01-15T09:12:50;5.47;;;2.42;;
25915;SDS011;13719;48.188;11.618;2024-01-15T09:15:19;7.22;;;3.42;;
25915;SDS011;13719;48.188;11.618;2024-01-15T09:17:47;8.30;;;3.33;;
25915;SDS011;13719;48.188;11.618;2024-01-15T09:20:16;2.67;;;2.00;;
25915;SDS011;13719;48.188;11.618;2024-01-15T09:22:44;7.40;;;3.17;;
25915;SDS011;13719;48.188;11.618;2024-01-15T09:25:13;3.88;;;2.22;;
25915;SDS011;13719;48.188;11.618;2024-01-15T09:27:41;7.28;;;3.38;;
25915;SDS011;13719;48.188;11.618;2024-01-15T09:30:12;6.57;;;3.03;;
25915;SDS011;13719;48.188;11.618;2024-01-15T09:32:40;4.55;;;3.00;;
25915;SDS011;13719;48.188;11.618;2024-01-15T09:35:09;5.05;;;2.95;;
25915;SDS011;13719;48.188;11.618;2024-01-15T09:37:39;5.35;;;2.70;;
25915;SDS011;13719;48.188;11.618;2024-01-15T09:40:13;8.57;;;3.90;;
25915;SDS011;13719;48.188;11.618;2024-01-15T09:42:43;4.72;;;2.47;;
25915;SDS011;13719;48.188;11.618;2024-01-15T09:45:14;4.85;;;2.75;;
25915;SDS011;13719;48.188;11.618;2024-01-15T09:47:43;7.13;;;3.20;;
25915;SDS011;13719;48.188;11.618;2024-01-15T09:50:12;7.30;;;3.05;;
25915;SDS011;13719;48.188;11.618;2024-01-15T09:52:43;5.95;;;3.22;;
25915;SDS011;13719;48.188;11.618;2024-01-15T09:55:12;4.97;;;3.20;;
25915;SDS011;13719;48.188;11.618;2024-01-15T09:57:43;4.78;;;3.22;;
25915;SDS011;13719;48.188;11.618;2024-01-15T10:00:14;7.25;;;3.08;;
25915;SDS011;13719;48.188;11.618;2024-01-15T10:02:42;6.10;;;2.70;;
25915;SDS011;13719;48.188;11.618;2024-01-15T10:05:11;6.18;;;2.85;;
25915;SDS011;13719;48.188;11.618;2024-01-15T10:07:40;4.22;;;2.30;;
25915;SDS011;13719;48.188;11.618;2024-01-15T10:10:09;4.47;;;2.38;;
25915;SDS011;13719;48.188;11.618;2024-01-15T10:12:39;5.63;;;2.95;;
25915;SDS011;13719;48.188;11.618;2024-01-15T10:15:09;5.32;;;2.97;;
25915;SDS011;13719;48.188;11.618;2024-01-15T10:17:39;4.63;;;2.15;;
25915;SDS011;13719;48.188;11.618;2024-01-15T10:20:09;4.55;;;2.58;;
25915;SDS011;13719;48.188;11.618;2024-01-15T10:22:39;5.50;;;2.35;;
25915;SDS011;13719;48.188;11.618;2024-01-15T10:25:12;5.55;;;2.60;;
25915;SDS011;13719;48.188;11.618;2024-01-15T10:27:40;4.53;;;2.42;;
25915;SDS011;13719;48.188;11.618;2024-01-15T10:30:09;2.28;;;1.92;;
25915;SDS011;13719;48.188;11.618;2024-01-15T10:32:42;3.80;;;2.20;;
25915;SDS011;13719;48.188;11.618;2024-01-15T10:35:17;4.63;;;2.55;;
25915;SDS011;13719;48.188;11.618;2024-01-15T10:37:45;3.35;;;1.73;;
25915;SDS011;13719;48.188;11.618;2024-01-15T10:40:15;4.10;;;2.38;;
25915;SDS011;13719;48.188;11.618;2024-01-15T10:42:43;3.22;;;2.35;;
25915;SDS011;13719;48.188;11.618;2024-01-15T10:45:13;4.65;;;2.08;;
25915;SDS011;13719;48.188;11.618;2024-01-15T10:47:43;4.18;;;2.08;;
25915;SDS011;13719;48.188;11.618;2024-01-15T10:50:12;3.67;;;2.25;;
25915;SDS011;13719;48.188;11.618;2024-01-15T10:52:40;3.92;;;2.13;;
25915;SDS011;13719;48.188;11.618;2024-01-15T10:55:09;3.63;;;2.13;;
25915;SDS011;13719;48.188;11.618;2024-01-15T10:57:44;4.47;;;2.17;;
25915;SDS011;13719;48.188;11.618;2024-01-15T11:00:13;6.60;;;2.90;;
25915;SDS011;13719;48.188;11.618;2024-01-15T11:02:43;2.83;;;1.85;;
25915;SDS011;13719;48.188;11.618;2024-01-15T11:05:12;6.63;;;3.08;;
25915;SDS011;13719;48.188;11.618;2024-01-15T11:07:40;2.78;;;2.10;;
25915;SDS011;13719;48.188;11.618;2024-01-15T11:10:14;7.70;;;4.10;;
25915;SDS011;13719;48.188;11.618;2024-01-15T11:13:03;11.80;;;5.10;;
25915;SDS011;13719;48.188;11.618;2024-01-15T11:15:31;5.45;;;3.78;;
25915;SDS011;13719;48.188;11.618;2024-01-15T11:18:01;5.15;;;2.78;;
25915;SDS011;13719;48.188;11.618;2024-01-15T11:20:32;5.32;;;2.05;;
25915;SDS011;13719;48.188;11.618;2024-01-15T11:23:00;5.47;;;2.65;;
25915;SDS011;13719;48.188;11.618;2024-01-15T11:25:34;3.45;;;2.28;;
25915;SDS011;13719;48.188;11.618;2024-01-15T11:30:32;3.67;;;2.17;;
25915;SDS011;13719;48.188;11.618;2024-01-15T11:33:04;5.50;;;2.15;;
25915;SDS011;13719;48.188;11.618;2024-01-15T11:35:49;7.65;;;3.10;;
25915;SDS011;13719;48.188;11.618;2024-01-15T11:38:27;5.50;;;2.45;;
25915;SDS011;13719;48.188;11.618;2024-01-15T11:40:56;5.20;;;2.22;;
25915;SDS011;13719;48.188;11.618;2024-01-15T11:43:28;6.53;;;2.50;;
25915;SDS011;13719;48.188;11.618;2024-01-15T11:45:59;4.50;;;2.33;;
25915;SDS011;13719;48.188;11.618;2024-01-15T11:48:34;5.30;;;2.63;;
25915;SDS011;13719;48.188;11.618;2024-01-15T11:51:06;6.60;;;2.80;;
25915;SDS011;13719;48.188;11.618;2024-01-15T11:53:36;5.25;;;3.13;;
25915;SDS011;13719;48.188;11.618;2024-01-15T11:56:06;3.72;;;2.40;;
25915;SDS011;13719;48.188;11.618;2024-01-15T11:58:40;5.45;;;2.38;;
25915;SDS011;13719;48.188;11.618;2024-01-15T12:01:08;4.25;;;2.80;;
25915;SDS011;13719;48.188;11.618;2024-01-15T12:03:38;5.38;;;3.13;;
25915;SDS011;13719;48.188;11.618;2024-01-15T12:06:07;4.10;;;2.10;;
25915;SDS011;13719;48.188;11.618;2024-01-15T12:08:35;4.38;;;2.55;;
25915;SDS011;13719;48.188;11.618;2024-01-15T12:11:05;6.20;;;2.15;;
25915;SDS011;13719;48.188;11.618;2024-01-15T12:13:34;4.72;;;2.22;;
25915;SDS011;13719;48.188;11.618;2024-01-15T12:16:03;5.05;;;2.38;;
25915;SDS011;13719;48.188;11.618;2024-01-15T12:18:32;3.70;;;2.05;;
25915;SDS011;13719;48.188;11.618;2024-01-15T12:21:03;4.10;;;2.00;;
25915;SDS011;13719;48.188;11.618;2024-01-15T12:23:33;3.92;;;1.92;;
25915;SDS011;13719;48.188;11.618;2024-01-15T12:26:01;3.63;;;2.25;;
25915;SDS011;13719;48.188;11.618;2024-01-15T12:28:30;5.15;;;2.15;;
25915;SDS011;13719;48.188;11.618;2024-01-15T12:30:59;2.45;;;1.70;;
25915;SDS011;13719;48.188;11.618;2024-01-15T12:33:32;3.13;;;1.80;;
25915;SDS011;13719;48.188;11.618;2024-01-15T12:36:03;2.83;;;1.90;;
25915;SDS011;13719;48.188;11.618;2024-01-15T12:38:32;5.35;;;2.10;;
25915;SDS011;13719;48.188;11.618;2024-01-15T12:41:00;2.90;;;1.77;;
25915;SDS011;13719;48.188;11.618;2024-01-15T12:43:29;3.75;;;2.10;;
25915;SDS011;13719;48.188;11.618;2024-01-15T12:45:57;2.35;;;1.80;;
25915;SDS011;13719;48.188;11.618;2024-01-15T12:48:26;2.92;;;1.50;;
25915;SDS011;13719;48.188;11.618;2024-01-15T12:50:55;2.28;;;1.58;;
25915;SDS011;13719;48.188;11.618;2024-01-15T12:53:24;1.58;;;1.45;;
25915;SDS011;13719;48.188;11.618;2024-01-15T12:55:53;3.28;;;1.60;;
25915;SDS011;13719;48.188;11.618;2024-01-15T12:58:21;4.78;;;1.80;;
25915;SDS011;13719;48.188;11.618;2024-01-15T13:00:50;1.75;;;1.50;;
25915;SDS011;13719;48.188;11.618;2024-01-15T13:03:18;3.75;;;1.50;;
25915;SDS011;13719;48.188;11.618;2024-01-15T13:05:47;5.28;;;1.73;;
25915;SDS011;13719;48.188;11.618;2024-01-15T13:08:16;6.22;;;1.70;;
25915;SDS011;13719;48.188;11.618;2024-01-15T13:10:46;3.50;;;1.73;;
25915;SDS011;13719;48.188;11.618;2024-01-15T13:13:14;3.03;;;1.90;;
25915;SDS011;13719;48.188;11.618;2024-01-15T13:15:43;3.35;;;1.90;;
25915;SDS011;13719;48.188;11.618;2024-01-15T13:18:11;3.22;;;1.80;;
25915;SDS011;13719;48.188;11.618;2024-01-15T13:20:40;3.10;;;1.80;;
25915;SDS011;13719;48.188;11.618;2024-01-15T13:23:08;5.97;;;2.10;;
25915;SDS011;13719;48.188;11.618;2024-01-15T13:25:38;3.10;;;1.95;;
25915;SDS011;13719;48.188;11.618;2024-01-15T13:28:07;7.55;;;2.53;;
25915;SDS011;13719;48.188;11.618;2024-01-15T13:30:36;3.10;;;2.00;;
25915;SDS011;13719;48.188;11.618;2024-01-15T13:33:04;2.13;;;1.58;;
25915;SDS011;13719;48.188;11.618;2024-01-15T13:35:34;3.95;;;2.15;;
25915;SDS011;13719;48.188;11.618;2024-01-15T13:38:03;5.03;;;2.13;;
25915;SDS011;13719;48.188;11.618;2024-01-15T13:40:32;3.50;;;1.90;;
25915;SDS011;13719;48.188;11.618;2024-01-15T13:43:00;3.67;;;2.58;;
25915;SDS011;13719;48.188;11.618;2024-01-15T13:45:30;3.95;;;2.47;;
25915;SDS011;13719;48.188;11.618;2024-01-15T13:48:00;5.60;;;2.33;;
25915;SDS011;13719;48.188;11.618;2024-01-15T13:50:31;2.80;;;1.83;;
25915;SDS011;13719;48.188;11.618;2024-01-15T13:53:00;3.88;;;2.40;;
25915;SDS011;13719;48.188;11.618;2024-01-15T13:55:30;4.45;;;2.50;;
25915;SDS011;13719;48.188;11.618;2024-01-15T13:57:58;3.80;;;1.88;;
25915;SDS011;13719;48.188;11.618;2024-01-15T14:00:27;6.30;;;2.50;;
25915;SDS011;13719;48.188;11.618;2024-01-15T14:02:57;3.75;;;2.33;;
25915;SDS011;13719;48.188;11.618;2024-01-15T14:05:25;5.10;;;2.45;;
25915;SDS011;13719;48.188;11.618;2024-01-15T14:07:54;3.88;;;2.22;;
25915;SDS011;13719;48.188;11.618;2024-01-15T14:10:22;3.63;;;1.95;;
25915;SDS011;13719;48.188;11.618;2024-01-15T14:12:51;3.83;;;2.50;;
25915;SDS011;13719;48.188;11.618;2024-01-15T14:15:19;3.05;;;2.35;;
25915;SDS011;13719;48.188;11.618;2024-01-15T14:17:48;3.50;;;2.05;;
25915;SDS011;13719;48.188;11.618;2024-01-15T14:20:19;4.63;;;2.83;;
25915;SDS011;13719;48.188;11.618;2024-01-15T14:22:48;3.97;;;2.50;;
25915;SDS011;13719;48.188;11.618;2024-01-15T14:25:16;5.05;;;3.08;;
25915;SDS011;13719;48.188;11.618;2024-01-15T14:27:45;3.35;;;2.10;;
25915;SDS011;13719;48.188;11.618;2024-01-15T14:30:13;6.25;;;2.53;;
25915;SDS011;13719;48.188;11.618;2024-01-15T14:32:43;5.15;;;2.45;;
25915;SDS011;13719;48.188;11.618;2024-01-15T14:35:12;5.32;;;2.00;;
25915;SDS011;13719;48.188;11.618;2024-01-15T14:37:42;4.00;;;2.33;;
25915;SDS011;13719;48.188;11.618;2024-01-15T14:40:10;2.58;;;1.80;;
25915;SDS011;13719;48.188;11.618;2024-01-15T14:42:43;6.10;;;2.70;;
25915;SDS011;13719;48.188;11.618;2024-01-15T14:45:12;4.07;;;2.33;;
25915;SDS011;13719;48.188;11.618;2024-01-15T14:47:41;6.78;;;3.03;;
25915;SDS011;13719;48.188;11.618;2024-01-15T14:50:10;3.78;;;2.22;;